Millinocket, ME

4:08 AM EDT on August 05, 2015 (GMT -0400)
Millinocket Municipal | | Change Station
CLOSE
Current Station
Airport
Location: Millinocket,
Elevation: 407 ft
Nearby Weather Stations

Elev 407 ft 45.65 °N, 68.69 °W | Updated 3 minutes ago

Fog
Fog
58 °F
Feels Like 58 °F
N
0
Wind Variable Wind from North

Today
High -- | Low -- °F
--% Chance of Precip.
Yesterday
High -- | Low -- °F
Precip. -- in
5:22 AM 7:58 PM
Waning Gibbous, 69% visible
Pressure 29.82 in
Visibility 0.5 miles
Clouds
Dew Point 57 °F
Humidity 97%
Rainfall 0.00 in
Snow Depth Not available.
UV Not available.
Pollen 4.20 out of 12
Air Quality Not available.
Flu Activity Not available.
SPECI KMLT 050805Z AUTO 00000KT 1/2SM FG VV001 14/14 A2982 RMK AO2 T01440139

More Conditions Fewer Conditions

Pressure 29.82 in
Visibility 0.5 miles
Clouds
Dew Point 57 °F
Humidity 97%
Rainfall 0.00 in
Snow Depth Not available.
UV Not available.
Pollen 4.20 out of 12
Air Quality Not available.
Flu Activity Not available.
SPECI KMLT 050805Z AUTO 00000KT 1/2SM FG VV001 14/14 A2982 RMK AO2 T01440139

More Conditions Fewer Conditions

10-Day Weather Forecast

×

Almanac

Astronomy

Aug. 05, 2015 Rise Set
Actual Time
Civil Twilight
Nautical Twilight
Astronomical Twilight
Moon
Length of Visible Light
Length of Day
Tomorrow will be .
, % of the Moon is Illuminated

Today's Extremes

State Highs State Lows

Community

WunderPhotos

Upload Photos

1,844,105 photos uploaded!

WunderBlogs® & News

Nearby

Air Quality

  Air Quality AQ Index Pollutant
Not available.

Snow Depth

Station Depth Elevation

Earthquake Activity

City Distance Mag. Time & Date
Minimum magnitude displayed is 2.5.

Coastal Water Temperatures

Place Temperature

Stations

Nearby Weather Stations

Station Location Temp. Windchill Dew Point Humidity Wind Precip. Elev Updated Type